M I D A S
Marine Information and Data Acquisition System
Tripno 2092 of the Zeeleeuw from 2011-01-27 07:49:23 to 2011-01-27 16:19:56
Back to CruiseResearch ActivitiesStationsMapUnderway DataData graphs

EquipmentUnitsComment
TimeDGPSUTC
LatitudeDGPSDM.mWGS84
LongitudeDGPSDM.mWGS84
TemperatureSBE03/SBE38deg celciusITS90
ConductivitySBE21S/mITS90
SalinitySBE21 Practical Salinity Units
ChlorophylAChelsea fluorimeterg/lCalibrated in Aceton
Missing or incorrect values are displayed as -999
Sea surface data collected by the RV Zeeleeuw from 2011-01-27 07:50:34 to 2011-01-27 16:27:18
Time Latitude Longitude Temperature Conductivity Salinity ChlorophylA
2011-01-27 07:51:39 51°13.682 2°55.869 12.3943 0.075463 0.424515 -0.304087
2011-01-27 07:52:39 51°13.713 2°55.749 12.4037 0.075359 0.423944 -0.338911
2011-01-27 07:53:39 51°13.774 2°55.666 12.4032 0.075463 0.424593 -0.304087
2011-01-27 07:54:39 51°13.871 2°55.624 12.4135 0.075359 0.424001 -0.338911
2011-01-27 07:55:38 51°13.946 2°55.638 12.4272 0.075359 0.424036 -0.304087
2011-01-27 07:56:36 51°13.964 2°55.646 12.4199 0.075359 0.424079 -0.269263
2011-01-27 07:57:36 51°13.987 2°55.566 12.2415 0.075359 0.424107 -0.304087
2011-01-27 07:58:36 51°14.102 2°55.442 12.2296 0.075359 0.424121 -0.304087
2011-01-27 07:59:38 51°14.253 2°55.302 12.1807 0.075359 0.424142 -0.338911
2011-01-27 08:00:38 51°14.402 2°55.143 12.0859 0.075359 0.424171 -0.304087
2011-01-27 08:01:37 51°14.56 2°54.969 11.9268 0.075359 0.424185 -0.304087
2011-01-27 08:02:37 51°14.736 2°54.776 11.9074 0.075359 0.424213 -0.304087
2011-01-27 08:03:39 51°14.92 2°54.571 11.825 0.075359 0.424228 -0.304087
2011-01-27 08:04:37 51°15.091 2°54.377 11.8885 0.075359 0.424263 -0.304087
2011-01-27 08:05:36 51°15.256 2°54.165 11.8714 0.075359 0.424299 -0.304087
2011-01-27 08:06:35 51°15.424 2°53.956 11.8901 0.075359 0.424334 -0.338911
2011-01-27 08:07:36 51°15.6 2°53.738 11.8718 0.075359 0.424363 -0.304087
2011-01-27 08:08:35 51°15.771 2°53.528 11.8571 0.075359 0.424384 -0.304087
2011-01-27 08:09:36 51°15.97 2°53.384 11.904 0.075359 0.424412 -0.304087
2011-01-27 08:10:35 51°16.163 2°53.234 11.9193 0.075255 0.423841 -0.338911
2011-01-27 08:11:35 51°16.359 2°53.079 11.9339 0.075255 0.423877 -0.338911
2011-01-27 08:12:36 51°16.561 2°52.932 11.9609 0.075255 0.423891 -0.304087
2011-01-27 08:13:35 51°16.755 2°52.79 11.9691 0.075255 0.423926 -0.304087
2011-01-27 08:14:36 51°16.96 2°52.642 5.1629 2.719309 24.582772 -0.025495
2011-01-27 08:15:36 51°17.159 2°52.496 5.0013 2.910998 29.393529 0.113802
2011-01-27 08:16:36 51°17.359 2°52.35 4.9085 2.876666 29.294045 -0.060319
2011-01-27 08:17:35 51°17.557 2°52.202 4.8294 2.858131 29.181816 -0.025495
2011-01-27 08:18:36 51°17.761 2°52.047 4.8316 2.856552 29.229027 -0.060319
2011-01-27 08:19:36 51°17.968 2°51.948 4.8946 2.870033 29.396587 0.009329
2011-01-27 08:20:36 51°18.184 2°51.887 4.8843 2.904473 29.760176 -0.060319
2011-01-27 08:21:36 51°18.396 2°51.804 4.8691 2.907843 29.804532 -0.095143
2011-01-27 08:22:36 51°18.605 2°51.713 4.899 2.919008 29.934755 -0.060319
2011-01-27 08:23:35 51°18.813 2°51.623 4.8722 2.926486 30.014679 -0.025495
2011-01-27 08:24:36 51°19.027 2°51.528 4.8621 2.926486 30.031216 0.044153
2011-01-27 08:25:36 51°19.231 2°51.393 4.8445 2.925012 30.036582 0.044153
2011-01-27 08:26:36 51°19.434 2°51.247 4.8484 2.924485 30.046393 0.287922
2011-01-27 08:27:36 51°19.639 2°51.103 4.8446 2.92438 30.04362 0.218274
2011-01-27 08:28:36 51°19.842 2°50.955 4.8405 2.927751 30.088953 0.462042
2011-01-27 08:29:36 51°20.042 2°50.81 4.8628 2.93565 30.175404 0.148626
2011-01-27 08:30:35 51°20.243 2°50.675 4.8556 2.954189 30.37546 0.253098
2011-01-27 08:31:35 51°20.448 2°50.532 4.8385 2.955347 30.391807 0.392394
2011-01-27 08:32:36 51°20.649 2°50.382 4.8532 2.955558 30.408578 0.496866
2011-01-27 08:33:35 51°20.844 2°50.236 4.8847 2.972939 30.593232 0.35757
2011-01-27 08:34:35 51°21.042 2°50.089 4.9062 2.988528 30.743011 0.566514
2011-01-27 08:35:35 51°21.243 2°49.937 4.9096 2.997693 30.831795 0.740634
2011-01-27 08:36:35 51°21.447 2°49.788 4.8897 2.99843 30.84341 0.70581
2011-01-27 08:37:36 51°21.655 2°49.641 4.9062 2.997061 30.840796 0.670986
2011-01-27 08:38:36 51°21.859 2°49.497 4.91 3.004962 30.911965 0.740634
2011-01-27 08:39:36 51°22.065 2°49.352 4.9238 3.008017 30.942629 0.70581
2011-01-27 08:40:35 51°22.264 2°49.206 4.9146 3.011072 30.970855 0.601338
2011-01-27 08:41:35 51°22.467 2°49.061 4.9092 3.006647 30.931122 0.636162
2011-01-27 08:42:36 51°22.672 2°48.91 4.89 3.003698 30.905706 0.566514
2011-01-27 08:43:35 51°22.873 2°48.765 4.898 3.001802 30.899558 0.53169
2011-01-27 08:44:35 51°23.074 2°48.617 4.9077 3.012336 31.007177 0.462042
2011-01-27 08:45:35 51°23.277 2°48.466 4.9259 3.021606 31.10774 0.496866
2011-01-27 08:46:35 51°23.48 2°48.322 4.9808 3.034985 31.248523 0.392394
2011-01-27 08:47:36 51°23.684 2°48.179 4.9792 3.06796 31.570252 0.427218
2011-01-27 08:48:36 51°23.886 2°48.04 4.9833 3.068909 31.581869 0.35757
2011-01-27 08:49:36 51°24.086 2°47.895 4.9899 3.068487 31.572939 0.253098
2011-01-27 08:50:35 51°24.285 2°47.759 4.978 3.071542 31.601085 0.253098
2011-01-27 08:51:36 51°24.49 2°47.613 4.9683 3.066169 31.553179 0.218274
2011-01-27 08:52:36 51°24.697 2°47.471 4.9602 3.0589 31.477894 0.287922
2011-01-27 08:53:36 51°24.898 2°47.331 4.9451 3.052368 31.414287 0.218274
2011-01-27 08:54:35 51°25.103 2°47.195 4.9277 3.045204 31.347576 0.218274
2011-01-27 08:55:36 51°25.316 2°47.053 4.9177 3.038462 31.284807 0.18345
2011-01-27 08:56:36 51°25.522 2°46.913 4.9109 3.032352 31.230022 0.078977
2011-01-27 08:57:35 51°25.728 2°46.772 4.8911 3.034564 31.262589 0.113802
2011-01-27 08:58:36 51°25.937 2°46.619 4.8918 3.029508 31.224687 0.113802
2011-01-27 08:59:35 51°26.14 2°46.473 4.9108 3.044783 31.383921 0.078977
2011-01-27 09:00:36 51°26.347 2°46.324 5.0208 3.057952 31.519951 0.078977
2011-01-27 09:01:36 51°26.55 2°46.187 5.163 3.126435 32.154035 0.044153
2011-01-27 09:02:36 51°26.754 2°46.055 5.1751 3.160995 32.462917 0.044153
2011-01-27 09:03:36 51°26.962 2°45.926 5.1731 3.164156 32.487862 0.009329
2011-01-27 09:04:36 51°27.172 2°45.802 5.1524 3.164367 32.497027 0.113802
2011-01-27 09:05:35 51°27.375 2°45.679 5.1393 3.162471 32.489847 0.009329
2011-01-27 09:06:36 51°27.589 2°45.55 5.14 3.162892 32.501416 0.009329
2011-01-27 09:07:36 51°27.795 2°45.423 5.1395 3.164157 32.510718 -0.025495
2011-01-27 09:08:36 51°28.003 2°45.297 5.1343 3.161522 32.490065 0.009329
2011-01-27 09:09:36 51°28.212 2°45.169 5.1172 3.15931 32.474201 0.009329
2011-01-27 09:10:36 51°28.421 2°45.045 5.1019 3.155306 32.444712 -0.060319
2011-01-27 09:11:35 51°28.629 2°44.924 5.0961 3.152671 32.424032 -0.025495
2011-01-27 09:12:36 51°28.843 2°44.802 5.0787 3.149932 32.39876 -0.025495
2011-01-27 09:13:35 51°29.049 2°44.677 5.0673 3.145823 32.368027 -0.060319
2011-01-27 09:14:35 51°29.26 2°44.55 5.0756 3.14498 32.366879 -0.025495
2011-01-27 09:15:36 51°29.478 2°44.424 5.0912 3.150353 32.413711 -0.060319
2011-01-27 09:16:36 51°29.692 2°44.316 5.0719 3.153093 32.445764 -0.025495
2011-01-27 09:17:36 51°29.915 2°44.294 5.0475 3.149827 32.424642 -0.060319
2011-01-27 09:18:36 51°30.139 2°44.3 5.0317 3.146139 32.398702 -0.060319
2011-01-27 09:19:36 51°30.362 2°44.307 5.0138 3.140133 32.351388 -0.060319
2011-01-27 09:20:36 51°30.588 2°44.315 4.9982 3.138763 32.346767 -0.025495
2011-01-27 09:21:36 51°30.816 2°44.319 4.9848 3.135919 32.333777 -0.060319
2011-01-27 09:22:35 51°31.03 2°44.409 4.9839 3.135708 32.341533 -0.060319
2011-01-27 09:23:36 51°31.217 2°44.497 5.2885 3.172376 32.67406 -0.060319
2011-01-27 09:24:36 51°31.323 2°44.536 5.3386 3.245193 33.285171 -0.095143
2011-01-27 09:25:35 51°31.404 2°44.56 5.3267 3.254466 33.360339 -0.095143
2011-01-27 09:26:35 51°31.495 2°44.588 5.3236 3.253307 33.353217 -0.095143
2011-01-27 09:27:36 51°31.606 2°44.625 5.3237 3.253202 33.353748 -0.060319
2011-01-27 09:28:35 51°31.73 2°44.671 5.3268 3.254256 33.363996 -0.095143
2011-01-27 09:29:36 51°31.865 2°44.718 5.3235 3.254677 33.368787 -0.060319
2011-01-27 09:30:36 51°31.986 2°44.751 5.3123 3.252359 33.34676 -0.095143
2011-01-27 09:31:36 51°32.101 2°44.79 5.2871 3.248881 33.320193 -0.095143
2011-01-27 09:32:36 51°32.215 2°44.827 5.2603 3.243506 33.281542 -0.095143
2011-01-27 09:33:36 51°32.331 2°44.87 5.2669 3.238343 33.246981 -0.095143
2011-01-27 09:34:35 51°32.443 2°44.912 5.2643 3.23771 33.234608 -0.095143
2011-01-27 09:35:36 51°32.563 2°44.943 5.2427 3.237078 33.235182 -0.129967
2011-01-27 09:36:35 51°32.682 2°44.987 5.2246 3.232968 33.192731 -0.095143
2011-01-27 09:37:35 51°32.807 2°45.028 5.2255 3.23065 33.189633 -0.129967
2011-01-27 09:38:35 51°32.924 2°45.067 5.2138 3.230334 33.189485 -0.129967
2011-01-27 09:39:36 51°33.041 2°45.125 5.2195 3.227278 33.169352 -0.095143
2011-01-27 09:40:36 51°33.154 2°45.182 5.2268 3.230755 33.196874 -0.095143
2011-01-27 09:41:36 51°33.266 2°45.232 5.2157 3.231809 33.208874 -0.129967
2011-01-27 09:42:36 51°33.375 2°45.279 5.2061 3.231072 33.210837 -0.095143
2011-01-27 09:43:36 51°33.489 2°45.319 5.1824 3.226962 33.175244 -0.095143
2011-01-27 09:44:35 51°33.596 2°45.367 5.4365 3.227805 33.184849 -0.129967
2011-01-27 09:45:35 51°33.707 2°45.415 5.6156 3.2962 33.69446 -0.095143
2011-01-27 09:46:35 51°33.814 2°45.491 5.6688 3.335934 33.995393 -0.129967
2011-01-27 09:47:36 51°33.929 2°45.561 5.6684 3.343207 34.035691 -0.095143
2011-01-27 09:48:36 51°34.042 2°45.637 5.6595 3.345104 34.059748 -0.129967
2011-01-27 09:49:35 51°34.156 2°45.707 5.682 3.344366 34.060148 -0.095143
2011-01-27 09:50:35 51°34.271 2°45.778 5.6787 3.348371 34.078316 -0.129967
2011-01-27 09:51:35 51°34.38 2°45.842 5.6684 3.348688 34.084509 -0.129967
2011-01-27 09:52:35 51°34.485 2°45.919 5.6675 3.347107 34.075386 -0.129967
2011-01-27 09:53:35 51°34.59 2°46.001 5.6593 3.344999 34.057683 -0.129967
2011-01-27 09:54:35 51°34.695 2°46.081 5.652 3.345526 34.071504 -0.129967
2011-01-27 09:55:35 51°34.8 2°46.17 5.6405 3.342258 34.04768 -0.129967
2011-01-27 09:56:36 51°34.905 2°46.271 5.6343 3.341942 34.047601 -0.164791
2011-01-27 09:57:36 51°35.001 2°46.357 5.6383 3.342047 34.049667 -0.129967
2011-01-27 09:58:35 51°35.109 2°46.438 5.6228 3.34015 34.029964 -0.095143
2011-01-27 09:59:35 51°35.222 2°46.519 5.6115 3.338042 34.021853 -0.129967
2011-01-27 10:00:35 51°35.33 2°46.597 5.6079 3.337832 34.025587 -0.129967
2011-01-27 10:01:35 51°35.439 2°46.682 5.6073 3.337094 34.022485 -0.129967
2011-01-27 10:02:35 51°35.544 2°46.768 5.6163 3.33741 34.021692 -0.129967
2011-01-27 10:03:35 51°35.653 2°46.846 5.6217 3.338569 34.033059 -0.129967
2011-01-27 10:04:35 51°35.767 2°46.932 5.6269 3.33878 34.02845 -0.129967
2011-01-27 10:05:35 51°35.878 2°47.014 5.6415 3.340256 34.044266 -0.129967
2011-01-27 10:06:35 51°35.991 2°47.093 5.632 3.341942 34.048475 -0.129967
2011-01-27 10:07:35 51°36.104 2°47.176 5.6247 3.34152 34.045456 -0.129967
2011-01-27 10:08:35 51°36.219 2°47.258 5.6002 3.338675 34.023763 -0.129967
2011-01-27 10:09:35 51°36.335 2°47.344 5.5887 3.334143 33.999581 -0.129967
2011-01-27 10:10:35 51°36.447 2°47.426 5.5761 3.331613 33.983188 -0.164791
2011-01-27 10:11:35 51°36.556 2°47.51 5.5678 3.330138 33.973475 -0.164791
2011-01-27 10:12:35 51°36.668 2°47.595 5.5518 3.327819 33.959455 -0.164791
2011-01-27 10:13:35 51°36.781 2°47.673 5.5314 3.324341 33.926186 -0.164791
2011-01-27 10:14:35 51°36.892 2°47.756 5.5077 3.32002 33.909546 -0.164791
2011-01-27 10:15:35 51°37.003 2°47.839 5.4947 3.316436 33.885527 -0.164791
2011-01-27 10:16:35 51°37.118 2°47.915 5.4743 3.312853 33.863237 -0.164791
2011-01-27 10:17:35 51°37.264 2°47.905 5.4734 3.310323 33.849394 -0.164791
2011-01-27 10:18:35 51°37.392 2°47.869 5.4505 3.309059 33.840286 -0.164791
2011-01-27 10:19:35 51°37.514 2°47.831 5.463 3.30674 33.829695 -0.199615
2011-01-27 10:20:36 51°37.625 2°47.746 5.4655 3.308637 33.841616 -0.199615
2011-01-27 10:21:36 51°37.703 2°47.568 5.4979 3.310534 33.857899 -0.164791
2011-01-27 10:22:35 51°37.779 2°47.362 5.5439 3.31865 33.914113 -0.199615
2011-01-27 10:23:36 51°37.857 2°47.147 5.5685 3.326976 33.965638 -0.199615
2011-01-27 10:24:36 51°37.932 2°46.94 5.5869 3.331402 33.992164 -0.199615
2011-01-27 10:25:35 51°38.007 2°46.736 5.602 3.334037 34.010627 -0.164791
2011-01-27 10:26:36 51°38.053 2°46.512 5.6817 3.34015 34.05182 -0.164791
2011-01-27 10:27:36 51°38.005 2°46.33 5.7611 3.354063 34.137365 -0.164791
2011-01-27 10:28:36 51°37.913 2°46.192 5.8027 3.367449 34.208844 -0.199615
2011-01-27 10:29:36 51°37.82 2°46.054 5.8326 3.374089 34.243467 -0.199615
2011-01-27 10:30:36 51°37.727 2°45.913 5.8564 3.377462 34.254357 -0.199615
2011-01-27 10:31:36 51°37.62 2°45.81 5.8768 3.381151 34.276661 -0.199615
2011-01-27 10:32:35 51°37.513 2°45.712 5.8897 3.384102 34.28715 -0.164791
2011-01-27 10:33:36 51°37.401 2°45.614 5.902 3.386421 34.296634 -0.199615
2011-01-27 10:34:36 51°37.293 2°45.521 5.9178 3.388213 34.307174 -0.199615
2011-01-27 10:35:35 51°37.183 2°45.435 5.9176 3.3899 34.317399 -0.234439
2011-01-27 10:36:36 51°37.068 2°45.346 5.9213 3.390637 34.318705 -0.199615
2011-01-27 10:37:36 51°36.956 2°45.256 5.9127 3.390637 34.321326 -0.234439
2011-01-27 10:38:36 51°36.844 2°45.166 5.9196 3.389794 34.315341 -0.199615
2011-01-27 10:39:36 51°36.731 2°45.076 5.929 3.389056 34.3053 -0.199615
2011-01-27 10:40:36 51°36.616 2°44.998 5.9244 3.390532 34.309662 -0.199615
2011-01-27 10:41:35 51°36.502 2°44.939 5.9131 3.390005 34.308104 -0.199615
2011-01-27 10:42:36 51°36.382 2°44.883 5.9153 3.39011 34.318022 -0.164791
2011-01-27 10:43:35 51°36.265 2°44.825 5.9098 3.388318 34.302246 -0.199615
2011-01-27 10:44:36 51°36.142 2°44.762 5.9043 3.387264 34.294762 -0.164791
2011-01-27 10:45:36 51°36.023 2°44.702 5.8993 3.386843 34.297881 -0.164791
2011-01-27 10:46:36 51°35.902 2°44.643 5.893 3.386105 34.293078 -0.199615
2011-01-27 10:47:35 51°35.784 2°44.581 5.8762 3.385156 34.291144 -0.199615
2011-01-27 10:48:35 51°35.663 2°44.518 5.8614 3.383154 34.276478 -0.199615
2011-01-27 10:49:36 51°35.541 2°44.451 5.8598 3.380835 34.264364 -0.164791
2011-01-27 10:50:35 51°35.423 2°44.391 5.8599 3.380519 34.263426 -0.164791
2011-01-27 10:51:36 51°35.3 2°44.326 5.8522 3.379886 34.26155 -0.164791
2011-01-27 10:52:35 51°35.18 2°44.265 5.8527 3.379886 34.266793 -0.199615
2011-01-27 10:53:36 51°35.058 2°44.2 5.8497 3.379254 34.2588 -0.164791
2011-01-27 10:54:35 51°34.94 2°44.138 5.8358 3.378411 34.254551 -0.164791
2011-01-27 10:55:36 51°34.819 2°44.078 5.7972 3.375143 34.243101 -0.199615
2011-01-27 10:56:36 51°34.699 2°44.017 5.7763 3.369135 34.206872 -0.199615
2011-01-27 10:57:36 51°34.581 2°43.951 5.7743 3.366289 34.187901 -0.199615
2011-01-27 10:58:36 51°34.464 2°43.884 5.7644 3.365341 34.177206 -0.234439
2011-01-27 10:59:36 51°34.349 2°43.83 5.6283 3.363022 34.164165 -0.199615
2011-01-27 11:00:35 51°34.24 2°43.779 5.3714 3.304948 33.743164 -0.234439
2011-01-27 11:01:35 51°34.13 2°43.722 5.3162 3.263003 33.424443 -0.234439
2011-01-27 11:02:35 51°34.016 2°43.668 5.2976 3.248776 33.317267 -0.234439
2011-01-27 11:03:35 51°33.904 2°43.616 5.3008 3.246141 33.299409 -0.199615
2011-01-27 11:04:35 51°33.791 2°43.553 5.2772 3.244455 33.289738 -0.234439
2011-01-27 11:05:36 51°33.677 2°43.476 5.2867 3.243506 33.282406 -0.234439
2011-01-27 11:06:35 51°33.567 2°43.402 5.2986 3.24435 33.291131 -0.269263
2011-01-27 11:07:36 51°33.463 2°43.302 5.3207 3.24867 33.320389 -0.234439
2011-01-27 11:08:35 51°33.382 2°43.156 5.3372 3.252569 33.346562 -0.234439
2011-01-27 11:09:36 51°33.315 2°42.985 5.3422 3.256469 33.37185 -0.199615
2011-01-27 11:10:35 51°33.251 2°42.823 5.3468 3.255731 33.366927 -0.234439
2011-01-27 11:11:36 51°33.187 2°42.656 5.3471 3.255309 33.358681 -0.269263
2011-01-27 11:12:35 51°33.126 2°42.491 5.3472 3.256152 33.362209 -0.234439
2011-01-27 11:13:36 51°33.066 2°42.318 5.3597 3.256258 33.360813 -0.234439
2011-01-27 11:14:36 51°33.01 2°42.144 5.3828 3.258998 33.378104 -0.269263
2011-01-27 11:15:36 51°32.954 2°41.968 5.387 3.262159 33.399306 -0.269263
2011-01-27 11:16:35 51°32.897 2°41.794 5.3937 3.264267 33.413721 -0.234439
2011-01-27 11:17:36 51°32.839 2°41.614 5.4112 3.265426 33.422554 -0.234439
2011-01-27 11:18:36 51°32.783 2°41.434 5.436 3.270274 33.45767 -0.234439
2011-01-27 11:19:35 51°32.749 2°41.247 5.4362 3.27449 33.489047 -0.234439
2011-01-27 11:20:36 51°32.754 2°41.046 5.4518 3.276176 33.498651 -0.269263
2011-01-27 11:21:35 51°32.801 2°40.88 5.4463 3.27881 33.519868 -0.269263
2011-01-27 11:22:35 51°32.898 2°40.788 5.4583 3.279548 33.523038 -0.269263
2011-01-27 11:23:36 51°33.012 2°40.794 5.4598 3.28271 33.547619 -0.234439
2011-01-27 11:24:35 51°33.121 2°40.809 5.4632 3.283448 33.556846 -0.269263
2011-01-27 11:25:36 51°33.232 2°40.867 5.4431 3.282605 33.554218 -0.234439
2011-01-27 11:26:35 51°33.338 2°40.928 5.4438 3.281445 33.546273 -0.269263
2011-01-27 11:27:35 51°33.456 2°40.986 5.4347 3.279337 33.531036 -0.269263
2011-01-27 11:28:35 51°33.57 2°41.038 5.4371 3.279337 33.533634 -0.269263
2011-01-27 11:29:35 51°33.67 2°41.086 5.4528 3.279864 33.535279 -0.234439
2011-01-27 11:30:35 51°33.763 2°41.13 5.4606 3.284185 33.575605 -0.269263
2011-01-27 11:31:35 51°33.862 2°41.178 5.4625 3.286609 33.592682 -0.269263
2011-01-27 11:32:35 51°33.965 2°41.225 5.4675 3.28819 33.608867 -0.234439
2011-01-27 11:33:35 51°34.071 2°41.274 5.4571 3.28819 33.605398 -0.234439
2011-01-27 11:34:35 51°34.176 2°41.323 5.4467 3.28545 33.587342 -0.269263
2011-01-27 11:35:35 51°34.283 2°41.368 5.4487 3.28271 33.56581 -0.269263
2011-01-27 11:36:35 51°34.389 2°41.415 5.4477 3.284502 33.578323 -0.269263
2011-01-27 11:37:35 51°34.492 2°41.466 5.436 3.283975 33.575816 -0.269263
2011-01-27 11:38:35 51°34.594 2°41.509 5.4225 3.280497 33.552845 -0.234439
2011-01-27 11:39:35 51°34.698 2°41.559 5.4127 3.27723 33.525319 -0.234439
2011-01-27 11:40:35 51°34.792 2°41.6 5.4032 3.274595 33.501494 -0.269263
2011-01-27 11:41:35 51°34.89 2°41.642 5.3962 3.272277 33.489907 -0.234439
2011-01-27 11:42:35 51°34.991 2°41.685 5.3806 3.270801 33.48009 -0.269263
2011-01-27 11:43:36 51°35.091 2°41.722 5.364 3.268799 33.467751 -0.269263
2011-01-27 11:44:35 51°35.195 2°41.762 5.3773 3.266375 33.455816 -0.269263
2011-01-27 11:45:35 51°35.296 2°41.802 5.589 3.272277 33.498568 -0.269263
2011-01-27 11:46:35 51°35.396 2°41.844 5.8554 3.328661 33.895755 -0.269263
2011-01-27 11:47:35 51°35.5 2°41.886 5.9222 3.381151 34.25395 -0.234439
2011-01-27 11:48:35 51°35.597 2°41.922 5.9328 3.390848 34.317581 -0.234439
2011-01-27 11:49:35 51°35.69 2°41.96 5.9746 3.39401 34.337394 -0.269263
2011-01-27 11:50:35 51°35.788 2°42.001 6.0132 3.4016 34.372843 -0.234439
2011-01-27 11:51:35 51°35.888 2°42.038 6.0326 3.407186 34.399731 -0.234439
2011-01-27 11:52:35 51°35.983 2°42.075 6.0387 3.4094 34.41146 -0.234439
2011-01-27 11:53:35 51°36.074 2°42.109 6.0519 3.41077 34.415478 -0.269263
2011-01-27 11:54:36 51°36.17 2°42.146 6.0563 3.411929 34.421493 -0.269263
2011-01-27 11:55:35 51°36.264 2°42.184 6.0628 3.413194 34.426943 -0.234439
2011-01-27 11:56:35 51°36.36 2°42.222 6.0659 3.414354 34.432955 -0.234439
2011-01-27 11:57:35 51°36.454 2°42.26 6.0726 3.415092 34.436859 -0.234439
2011-01-27 11:58:35 51°36.545 2°42.298 6.0811 3.415935 34.437583 -0.269263
2011-01-27 11:59:35 51°36.638 2°42.337 6.0788 3.416356 34.442304 -0.269263
2011-01-27 12:00:35 51°36.736 2°42.374 6.0863 3.416778 34.443538 -0.269263
2011-01-27 12:01:35 51°36.832 2°42.412 6.0858 3.416989 34.442411 -0.269263
2011-01-27 12:02:35 51°36.91 2°42.437 6.0837 3.417411 34.442772 -0.304087
2011-01-27 12:03:35 51°36.999 2°42.473 6.092 3.417727 34.44544 -0.304087
2011-01-27 12:04:35 51°37.094 2°42.519 6.086 3.417938 34.450417 -0.269263
2011-01-27 12:05:35 51°37.185 2°42.571 6.1002 3.417621 34.442517 -0.234439
2011-01-27 12:06:35 51°37.277 2°42.619 6.0932 3.419413 34.453858 -0.234439
2011-01-27 12:07:35 51°37.367 2°42.667 6.0915 3.417832 34.44139 -0.199615
2011-01-27 12:08:35 51°37.457 2°42.713 6.0775 3.417832 34.446621 -0.234439
2011-01-27 12:09:35 51°37.549 2°42.763 6.0664 3.415724 34.433478 -0.234439
2011-01-27 12:10:35 51°37.637 2°42.808 6.0815 3.414565 34.430084 -0.234439
2011-01-27 12:11:35 51°37.731 2°42.851 6.0811 3.416778 34.44005 -0.234439
2011-01-27 12:12:35 51°37.824 2°42.894 6.0847 3.417305 34.44072 -0.199615
2011-01-27 12:13:35 51°37.918 2°42.938 6.0813 3.417305 34.443336 -0.234439
2011-01-27 12:14:35 51°38.01 2°42.981 6.0635 3.415619 34.434913 -0.269263
2011-01-27 12:15:35 51°38.104 2°43.029 6.0555 3.413194 34.421711 -0.269263
2011-01-27 12:16:35 51°38.198 2°43.076 6.0589 3.413194 34.423455 -0.234439
2011-01-27 12:17:35 51°38.291 2°43.122 6.0552 3.412456 34.416933 -0.234439
2011-01-27 12:18:35 51°38.382 2°43.168 6.0526 3.411929 34.41626 -0.234439
2011-01-27 12:19:35 51°38.463 2°43.201 6.0479 3.411824 34.409848 -0.269263
2011-01-27 12:20:35 51°38.562 2°43.248 6.0346 3.410875 34.40881 -0.269263
2011-01-27 12:21:35 51°38.664 2°43.305 6.0045 3.408451 34.398209 -0.234439
2011-01-27 12:22:37 51°38.776 2°43.358 5.993 3.405078 34.381325 -0.269263
2011-01-27 12:23:35 51°38.876 2°43.409 5.9854 3.40297 34.370765 -0.269263
2011-01-27 12:24:35 51°38.981 2°43.47 5.9721 3.401705 34.367044 -0.269263
2011-01-27 12:25:36 51°39.093 2°43.527 5.9506 3.39907 34.353179 -0.234439
2011-01-27 12:26:35 51°39.196 2°43.581 5.935 3.396751 34.344601 -0.234439
2011-01-27 12:27:35 51°39.307 2°43.638 5.9342 3.394643 34.335766 -0.269263
2011-01-27 12:28:35 51°39.422 2°43.702 5.9155 3.39264 34.325492 -0.234439
2011-01-27 12:29:35 51°39.529 2°43.757 5.9127 3.391375 34.317391 -0.234439
2011-01-27 12:30:35 51°39.639 2°43.818 5.9108 3.390637 34.317832 -0.234439
2011-01-27 12:31:35 51°39.75 2°43.877 5.9013 3.390954 34.320512 -0.234439
2011-01-27 12:32:35 51°39.864 2°43.936 5.898 3.389056 34.314035 -0.304087
2011-01-27 12:33:36 51°39.977 2°43.998 5.8933 3.388635 34.310168 -0.269263
2011-01-27 12:34:35 51°40.078 2°44.054 5.904 3.389373 34.314095 -0.269263
2011-01-27 12:35:35 51°40.186 2°44.104 5.9067 3.390637 34.322199 -0.269263
2011-01-27 12:36:35 51°40.29 2°44.163 5.9057 3.390848 34.322822 -0.269263
2011-01-27 12:37:35 51°40.4 2°44.225 5.9073 3.390848 34.324569 -0.269263
2011-01-27 12:38:36 51°40.503 2°44.283 5.8982 3.390321 34.323887 -0.234439
2011-01-27 12:39:35 51°40.599 2°44.331 5.888 3.389056 34.317529 -0.269263
2011-01-27 12:40:35 51°40.692 2°44.382 5.8782 3.388002 34.310046 -0.269263
2011-01-27 12:41:35 51°40.795 2°44.43 5.8752 3.386843 34.310989 -0.269263
2011-01-27 12:42:35 51°40.902 2°44.489 5.8668 3.386105 34.308808 -0.269263
2011-01-27 12:43:35 51°41.009 2°44.542 5.8701 3.385894 34.310807 -0.269263
2011-01-27 12:44:35 51°41.113 2°44.598 5.8873 3.387475 34.318103 -0.234439
2011-01-27 12:45:35 51°41.22 2°44.653 5.8969 3.388529 34.316846 -0.269263
2011-01-27 12:46:35 51°41.325 2°44.706 5.9096 3.390954 34.332745 -0.269263
2011-01-27 12:47:35 51°41.431 2°44.763 5.9136 3.392851 34.341838 -0.234439
2011-01-27 12:48:35 51°41.534 2°44.813 5.9218 3.394116 34.348188 -0.269263
2011-01-27 12:49:35 51°41.637 2°44.866 5.9387 3.395275 34.352479 -0.269263
2011-01-27 12:50:35 51°41.739 2°44.918 5.9493 3.397383 34.362183 -0.269263
2011-01-27 12:51:35 51°41.838 2°44.97 5.959 3.399597 34.377433 -0.304087
2011-01-27 12:52:35 51°41.943 2°45.028 5.977 3.401283 34.38676 -0.269263
2011-01-27 12:53:35 51°42.052 2°45.087 5.9851 3.403286 34.390024 -0.269263
2011-01-27 12:54:36 51°42.156 2°45.142 6.0081 3.405921 34.404748 -0.269263
2011-01-27 12:55:35 51°42.254 2°45.198 6.0125 3.407713 34.411751 -0.269263
2011-01-27 12:56:35 51°42.359 2°45.259 6.0247 3.409083 34.417515 -0.269263
2011-01-27 12:57:35 51°42.463 2°45.322 6.0315 3.410559 34.420968 -0.269263
2011-01-27 12:58:35 51°42.567 2°45.382 6.0368 3.411297 34.421385 -0.269263
2011-01-27 12:59:35 51°42.669 2°45.439 6.0443 3.412246 34.427654 -0.269263
2011-01-27 13:00:35 51°42.772 2°45.498 6.0532 3.4133 34.431614 -0.234439
2011-01-27 13:01:35 51°42.876 2°45.553 6.0641 3.414248 34.437008 -0.234439
2011-01-27 13:02:35 51°42.985 2°45.616 6.0679 3.415197 34.43804 -0.234439
2011-01-27 13:03:35 51°43.088 2°45.643 6.0738 3.41604 34.439635 -0.269263
2011-01-27 13:04:36 51°43.198 2°45.567 6.0831 3.4172 34.448259 -0.234439
2011-01-27 13:05:35 51°43.293 2°45.487 6.0895 3.418043 34.446365 -0.234439
2011-01-27 13:06:36 51°43.405 2°45.402 6.0921 3.419203 34.455858 -0.234439
2011-01-27 13:07:35 51°43.512 2°45.324 6.1048 3.419519 34.452423 -0.234439
2011-01-27 13:08:35 51°43.624 2°45.242 6.1135 3.420573 34.455503 -0.269263
2011-01-27 13:09:35 51°43.731 2°45.145 6.1177 3.422365 34.468581 -0.234439
2011-01-27 13:10:35 51°43.834 2°45.023 6.1287 3.423524 34.475452 -0.269263
2011-01-27 13:11:35 51°43.93 2°44.888 6.1351 3.424895 34.479449 -0.269263
2011-01-27 13:12:35 51°43.998 2°44.708 6.1415 3.425738 34.483651 -0.234439
2011-01-27 13:13:35 51°43.965 2°44.492 6.1487 3.427635 34.497024 -0.234439
2011-01-27 13:14:35 51°43.882 2°44.314 6.1525 3.428689 34.507067 -0.269263
2011-01-27 13:15:35 51°43.794 2°44.146 6.1522 3.428584 34.502402 -0.269263
2011-01-27 13:16:35 51°43.679 2°44.059 6.1539 3.428479 34.502095 -0.269263
2011-01-27 13:17:35 51°43.557 2°43.982 6.1496 3.428373 34.497431 -0.304087
2011-01-27 13:18:35 51°43.441 2°43.905 6.1435 3.427951 34.497946 -0.269263
2011-01-27 13:19:35 51°43.322 2°43.832 6.1478 3.426897 34.489646 -0.304087
2011-01-27 13:20:35 51°43.204 2°43.756 6.1374 3.426687 34.489031 -0.199615
2011-01-27 13:21:35 51°43.086 2°43.685 6.1365 3.425105 34.482679 -0.269263
2011-01-27 13:22:35 51°42.968 2°43.616 6.1355 3.424578 34.482013 -0.269263
2011-01-27 13:23:35 51°42.851 2°43.543 6.123 3.423735 34.475195 -0.269263
2011-01-27 13:24:35 51°42.733 2°43.482 6.1137 3.422681 34.472119 -0.304087
2011-01-27 13:25:35 51°42.615 2°43.436 6.1105 3.421838 34.463556 -0.269263
2011-01-27 13:26:35 51°42.495 2°43.39 6.1004 3.421205 34.466939 -0.269263
2011-01-27 13:27:35 51°42.375 2°43.341 6.101 3.420046 34.459194 -0.234439
2011-01-27 13:28:35 51°42.256 2°43.292 6.0858 3.418781 34.45201 -0.269263
2011-01-27 13:29:35 51°42.139 2°43.241 6.0814 3.417832 34.449236 -0.234439
2011-01-27 13:30:35 51°42.022 2°43.187 6.0753 3.417094 34.447079 -0.269263
2011-01-27 13:31:35 51°41.904 2°43.134 6.0678 3.416673 34.44759 -0.234439
2011-01-27 13:32:35 51°41.786 2°43.081 6.0731 3.415724 34.442199 -0.234439
2011-01-27 13:33:35 51°41.668 2°43.025 6.0682 3.414986 34.439167 -0.269263
2011-01-27 13:34:35 51°41.549 2°42.972 6.0588 3.414143 34.434082 -0.234439
2011-01-27 13:35:35 51°41.431 2°42.923 6.0547 3.413616 34.433412 -0.234439
2011-01-27 13:36:35 51°41.312 2°42.868 6.0571 3.412983 34.429815 -0.269263
2011-01-27 13:37:35 51°41.191 2°42.815 6.0534 3.412773 34.428325 -0.269263
2011-01-27 13:38:35 51°41.071 2°42.766 6.0444 3.412035 34.42093 -0.234439
2011-01-27 13:39:35 51°40.95 2°42.715 6.0477 3.411613 34.419694 -0.269263
2011-01-27 13:40:35 51°40.831 2°42.66 6.0353 3.411297 34.424003 -0.269263
2011-01-27 13:41:35 51°40.714 2°42.603 6.04 3.409505 34.407407 -0.269263
2011-01-27 13:42:35 51°40.597 2°42.543 6.0394 3.411824 34.431656 -0.304087
2011-01-27 13:43:35 51°40.48 2°42.479 6.0351 3.411508 34.423748 -0.269263
2011-01-27 13:44:35 51°40.362 2°42.412 6.0327 3.410981 34.425694 -0.269263
2011-01-27 13:45:35 51°40.244 2°42.351 6.0302 3.410243 34.420914 -0.304087
2011-01-27 13:46:35 51°40.125 2°42.286 6.0239 3.410137 34.418859 -0.269263
2011-01-27 13:47:35 51°40.008 2°42.224 6.0202 3.4094 34.414951 -0.234439
2011-01-27 13:48:35 51°39.89 2°42.164 6.0199 3.408662 34.411915 -0.304087
2011-01-27 13:49:35 51°39.773 2°42.102 6.0172 3.408346 34.415352 -0.199615
2011-01-27 13:50:35 51°39.655 2°42.036 6.0068 3.407713 34.410005 -0.269263
2011-01-27 13:51:35 51°39.536 2°41.974 6.0065 3.406975 34.406095 -0.269263
2011-01-27 13:52:35 51°39.417 2°41.909 6.0078 3.406554 34.401365 -0.269263
2011-01-27 13:53:35 51°39.3 2°41.84 5.9986 3.406343 34.399874 -0.269263
2011-01-27 13:54:35 51°39.184 2°41.778 6.0051 3.406343 34.400747 -0.269263
2011-01-27 13:55:35 51°39.066 2°41.717 6.0128 3.406448 34.401929 -0.269263
2011-01-27 13:56:35 51°38.947 2°41.655 6.0094 3.406554 34.402238 -0.269263
2011-01-27 13:57:35 51°38.827 2°41.587 6.0158 3.40687 34.401421 -0.304087
2011-01-27 13:58:35 51°38.708 2°41.511 6.0252 3.407819 34.410314 -0.269263
2011-01-27 13:59:35 51°38.589 2°41.435 6.036 3.407608 34.401841 -0.234439
2011-01-27 14:00:35 51°38.454 2°41.365 6.034 3.409927 34.414751 -0.304087
2011-01-27 14:01:35 51°38.308 2°41.285 6.0399 3.410032 34.41157 -0.269263
2011-01-27 14:02:35 51°38.168 2°41.212 6.0343 3.410032 34.412442 -0.234439
2011-01-27 14:03:35 51°38.032 2°41.157 6.0344 3.408873 34.406424 -0.269263
2011-01-27 14:04:35 51°37.896 2°41.12 6.0456 3.409083 34.407043 -0.269263
2011-01-27 14:05:35 51°37.761 2°41.083 6.0419 3.409927 34.409516 -0.269263
2011-01-27 14:06:35 51°37.627 2°41.043 6.0309 3.410032 34.410698 -0.304087
2011-01-27 14:07:35 51°37.493 2°41.016 6.0241 3.408451 34.401698 -0.269263
2011-01-27 14:08:35 51°37.357 2°40.986 6.0139 3.407397 34.394242 -0.304087
2011-01-27 14:09:35 51°37.223 2°40.96 6.0071 3.404867 34.38594 -0.269263
2011-01-27 14:10:35 51°37.089 2°40.909 6.0072 3.404551 34.381521 -0.269263
2011-01-27 14:11:35 51°36.958 2°40.821 6.0142 3.404867 34.380705 -0.269263
2011-01-27 14:12:35 51°36.828 2°40.732 6.0297 3.405816 34.385237 -0.269263
2011-01-27 14:13:35 51°36.698 2°40.645 6.049 3.408029 34.395227 -0.269263
2011-01-27 14:14:35 51°36.569 2°40.558 6.0588 3.410454 34.406701 -0.269263
2011-01-27 14:15:35 51°36.439 2°40.473 6.0609 3.412246 34.416315 -0.269263
2011-01-27 14:16:35 51°36.309 2°40.391 6.0666 3.412773 34.419603 -0.304087
2011-01-27 14:17:35 51°36.182 2°40.311 6.0781 3.413827 34.425307 -0.304087
2011-01-27 14:18:35 51°36.053 2°40.234 6.0875 3.415935 34.436711 -0.269263
2011-01-27 14:19:35 51°35.926 2°40.153 6.1003 3.417411 34.4419 -0.304087
2011-01-27 14:20:35 51°35.799 2°40.08 6.1158 3.419519 34.451551 -0.269263
2011-01-27 14:21:35 51°35.682 2°40.002 6.1222 3.420467 34.452581 -0.269263
2011-01-27 14:22:35 51°35.571 2°39.935 6.1185 3.420889 34.457299 -0.269263
2011-01-27 14:23:35 51°35.479 2°39.882 6.1248 3.420784 34.457862 -0.304087
2011-01-27 14:24:35 51°35.401 2°39.833 6.123 3.421627 34.458583 -0.269263
2011-01-27 14:25:35 51°35.33 2°39.789 6.1222 3.421205 34.45648 -0.269263
2011-01-27 14:26:35 51°35.26 2°39.747 6.1203 3.421311 34.457659 -0.269263
2011-01-27 14:27:35 51°35.177 2°39.7 6.1302 3.422048 34.464172 -0.234439
2011-01-27 14:28:35 51°35.049 2°39.714 6.133 3.422365 34.465095 -0.269263
2011-01-27 14:29:35 51°34.876 2°39.784 6.1131 3.42247 34.465403 -0.234439
2011-01-27 14:30:35 51°34.675 2°39.866 6.0974 3.418043 34.432423 -0.269263
2011-01-27 14:31:35 51°34.46 2°39.942 6.0489 3.416673 34.432768 -0.269263
2011-01-27 14:32:35 51°34.242 2°40.026 5.9657 3.408451 34.38949 -0.234439
2011-01-27 14:33:35 51°34.021 2°40.1 5.8991 3.39517 34.318126 -0.234439
2011-01-27 14:34:35 51°33.8 2°40.172 5.8338 3.381783 34.257572 -0.304087
2011-01-27 14:35:35 51°33.58 2°40.24 5.7938 3.373667 34.213378 -0.269263
2011-01-27 14:36:35 51°33.359 2°40.302 5.7769 3.367554 34.176826 -0.269263
2011-01-27 14:37:35 51°33.141 2°40.368 5.7431 3.363443 34.146216 -0.304087
2011-01-27 14:38:35 51°32.92 2°40.437 5.772 3.358806 34.124479 -0.269263
2011-01-27 14:39:35 51°32.697 2°40.505 5.7851 3.362178 34.139814 -0.269263
2011-01-27 14:40:35 51°32.476 2°40.579 5.7861 3.36513 34.159985 -0.269263
2011-01-27 14:41:35 51°32.255 2°40.653 5.7848 3.364603 34.157537 -0.269263
2011-01-27 14:42:35 51°32.037 2°40.737 5.7754 3.36513 34.162603 -0.269263
2011-01-27 14:43:35 51°31.824 2°40.84 5.7794 3.36397 34.155647 -0.269263
2011-01-27 14:44:35 51°31.61 2°40.937 5.7425 3.36123 34.126505 -0.269263
2011-01-27 14:45:35 51°31.397 2°41.029 5.5888 3.355222 34.097152 -0.234439
2011-01-27 14:46:35 51°31.189 2°41.123 5.3943 3.320335 33.871252 -0.269263
2011-01-27 14:47:35 51°30.985 2°41.223 5.33 3.277968 33.567515 -0.269263
2011-01-27 14:48:35 51°30.788 2°41.345 5.3016 3.261001 33.435463 -0.234439
2011-01-27 14:49:35 51°30.588 2°41.458 5.2299 3.25531 33.393285 -0.304087
2011-01-27 14:50:35 51°30.39 2°41.573 5.1961 3.231914 33.195401 -0.269263
2011-01-27 14:51:35 51°30.192 2°41.684 5.1692 3.21674 33.066563 -0.304087
2011-01-27 14:52:35 51°29.991 2°41.799 5.1211 3.203989 32.951394 -0.269263
2011-01-27 14:53:35 51°29.791 2°41.908 5.1255 3.193767 32.864931 -0.269263
2011-01-27 14:54:35 51°29.59 2°42.027 5.116 3.192608 32.855147 -0.269263
2011-01-27 14:55:35 51°29.392 2°42.147 5.1128 3.190922 32.840211 -0.269263
2011-01-27 14:56:35 51°29.19 2°42.258 5.1244 3.187761 32.812735 -0.269263
2011-01-27 14:57:35 51°28.999 2°42.397 5.1303 3.188604 32.813786 -0.269263
2011-01-27 14:58:35 51°28.805 2°42.542 5.1609 3.192819 32.844701 -0.269263
2011-01-27 14:59:35 51°28.612 2°42.685 5.2188 3.203673 32.942644 -0.234439
2011-01-27 15:00:35 51°28.419 2°42.834 5.2702 3.224116 33.120425 -0.269263
2011-01-27 15:01:35 51°28.225 2°42.979 5.2683 3.238132 33.235951 -0.269263
2011-01-27 15:02:35 51°28.031 2°43.122 5.2439 3.235392 33.210821 -0.234439
2011-01-27 15:03:35 51°27.838 2°43.265 5.22 3.228647 33.147019 -0.234439
2011-01-27 15:04:35 51°27.645 2°43.394 5.1062 3.21558 33.037024 -0.234439
2011-01-27 15:05:35 51°27.456 2°43.532 5.0368 3.176486 32.699583 -0.269263
2011-01-27 15:06:35 51°27.267 2°43.67 5.0156 3.157203 32.53676 -0.269263
2011-01-27 15:07:35 51°27.075 2°43.801 5.0082 3.15067 32.48687 -0.234439
2011-01-27 15:08:35 51°26.883 2°43.936 5.0137 3.148668 32.466567 -0.269263
2011-01-27 15:09:35 51°26.689 2°44.068 5.0381 3.151092 32.48913 -0.234439
2011-01-27 15:10:35 51°26.497 2°44.198 5.0345 3.15478 32.511661 -0.269263
2011-01-27 15:11:35 51°26.305 2°44.336 5.0316 3.155096 32.517819 -0.234439
2011-01-27 15:12:35 51°26.114 2°44.472 5.0502 3.155517 32.530285 -0.269263
2011-01-27 15:13:35 51°25.92 2°44.606 5.0698 3.16479 32.606284 -0.234439
2011-01-27 15:14:35 51°25.726 2°44.751 5.0974 3.168688 32.637969 -0.234439
2011-01-27 15:15:35 51°25.532 2°44.893 5.1271 3.175537 32.681948 -0.234439
2011-01-27 15:16:35 51°25.338 2°45.033 5.1494 3.182387 32.736957 -0.199615
2011-01-27 15:17:35 51°25.146 2°45.173 5.0736 3.183019 32.736477 -0.199615
2011-01-27 15:18:35 51°24.956 2°45.315 5.0445 3.159521 32.534287 -0.234439
2011-01-27 15:19:35 51°24.775 2°45.467 4.923 3.132547 32.287694 -0.199615
2011-01-27 15:20:35 51°24.595 2°45.621 4.8929 3.095354 31.93987 -0.199615
2011-01-27 15:21:35 51°24.413 2°45.774 4.8645 3.078708 31.784127 -0.234439
2011-01-27 15:22:35 51°24.234 2°45.932 4.912 3.074704 31.744257 -0.234439
2011-01-27 15:23:35 51°24.054 2°46.089 4.8814 3.080815 31.79065 -0.234439
2011-01-27 15:24:35 51°23.873 2°46.243 4.8566 3.06891 31.683933 -0.199615
2011-01-27 15:25:35 51°23.696 2°46.403 4.8588 3.062588 31.617593 -0.234439
2011-01-27 15:26:35 51°23.516 2°46.555 4.8388 3.059533 31.592683 -0.199615
2011-01-27 15:27:35 51°23.335 2°46.712 4.826 3.048471 31.488773 -0.199615
2011-01-27 15:28:35 51°23.149 2°46.858 4.8682 3.044573 31.450885 -0.164791
2011-01-27 15:29:35 51°22.938 2°46.919 4.8855 3.060165 31.590764 -0.164791
2011-01-27 15:30:35 51°22.721 2°46.956 4.8887 3.067751 31.664046 -0.164791
2011-01-27 15:31:35 51°22.504 2°47.016 4.9368 3.072913 31.714643 -0.199615
2011-01-27 15:32:35 51°22.293 2°47.102 4.9698 3.086504 31.831355 -0.164791
2011-01-27 15:33:35 51°22.093 2°47.226 4.9874 3.103045 31.979851 -0.164791
2011-01-27 15:34:35 51°21.914 2°47.405 4.9891 3.11042 32.050521 -0.129967
2011-01-27 15:35:35 51°21.737 2°47.587 4.989 3.11042 32.049682 -0.164791
2011-01-27 15:36:35 51°21.557 2°47.755 4.9232 3.105574 31.996948 -0.129967
2011-01-27 15:37:35 51°21.381 2°47.92 4.7866 3.060481 31.572797 -0.164791
2011-01-27 15:38:35 51°21.205 2°48.078 4.699 2.997905 30.978065 -0.164791
2011-01-27 15:39:35 51°21.028 2°48.237 4.698 2.95398 30.535119 -0.129967
2011-01-27 15:40:35 51°20.854 2°48.405 4.6874 2.942709 30.412145 -0.129967
2011-01-27 15:41:35 51°20.678 2°48.568 4.6877 2.94292 30.416959 -0.129967
2011-01-27 15:42:35 51°20.505 2°48.74 4.7072 2.942077 30.410559 -0.129967
2011-01-27 15:43:35 51°20.327 2°48.912 4.7123 2.951662 30.503837 -0.129967
2011-01-27 15:44:35 51°20.147 2°49.082 4.7274 2.959878 30.586291 -0.164791
2011-01-27 15:45:35 51°19.972 2°49.259 4.7234 2.965145 30.639114 -0.129967
2011-01-27 15:46:35 51°19.794 2°49.433 4.7518 2.970201 30.691954 -0.129967
2011-01-27 15:47:35 51°19.619 2°49.613 4.7661 2.983263 30.815033 -0.095143
2011-01-27 15:48:35 51°19.439 2°49.797 4.7732 2.986423 30.83808 -0.095143
2011-01-27 15:49:35 51°19.26 2°49.988 4.772 2.984632 30.820092 -0.095143
2011-01-27 15:50:35 51°19.083 2°50.181 4.7542 2.983368 30.807299 0.009329
2011-01-27 15:51:35 51°18.9 2°50.371 4.729 2.960826 30.564023 0.078977
2011-01-27 15:52:35 51°18.719 2°50.565 4.7195 2.945553 30.41486 0.078977
2011-01-27 15:53:35 51°18.537 2°50.765 4.6994 2.932281 30.274007 0.009329
2011-01-27 15:54:35 51°18.355 2°50.962 4.6982 2.923223 30.181162 0.044153
2011-01-27 15:55:35 51°18.176 2°51.164 4.7007 2.920695 30.156342 0.009329
2011-01-27 15:56:35 51°17.998 2°51.369 4.7069 2.917746 30.125126 0.044153
2011-01-27 15:57:35 51°17.824 2°51.579 4.6911 2.914691 30.087941 0.148626
2011-01-27 15:58:35 51°17.651 2°51.785 4.6496 2.901842 29.951894 0.113802
2011-01-27 15:59:35 51°17.475 2°51.988 4.6254 2.866876 29.592342 0.148626
2011-01-27 16:00:35 51°17.277 2°52.139 4.6024 2.840126 29.310523 0.18345
2011-01-27 16:01:35 51°17.082 2°52.293 4.6227 2.826436 29.172582 0.218274
2011-01-27 16:02:35 51°16.887 2°52.458 4.5958 2.820118 29.101481 0.18345
2011-01-27 16:03:35 51°16.692 2°52.612 4.5855 2.815168 29.053664 0.218274
2011-01-27 16:04:35 51°16.498 2°52.773 4.5751 2.813168 29.035525 0.287922
2011-01-27 16:05:35 51°16.306 2°52.933 4.5728 2.808745 28.99214 0.287922
2011-01-27 16:06:35 51°16.121 2°53.112 4.5654 2.806533 28.969291 0.322746
2011-01-27 16:07:35 51°15.937 2°53.291 4.5524 2.800215 28.904333 0.287922
2011-01-27 16:08:35 51°15.761 2°53.477 4.5567 2.790001 28.805761 0.253098
2011-01-27 16:09:35 51°15.596 2°53.667 4.5614 2.790528 28.803341 0.218274
2011-01-27 16:10:35 51°15.447 2°53.861 4.5078 2.791054 28.811622 0.218274
2011-01-27 16:11:35 51°15.299 2°54.051 4.4958 2.774312 28.652458 0.218274
2011-01-27 16:12:35 51°15.153 2°54.234 4.526 2.764414 28.55354 0.148626
2011-01-27 16:13:35 51°15.007 2°54.399 4.5136 2.763255 28.515354 0.18345
2011-01-27 16:14:36 51°14.869 2°54.581 4.5173 2.754621 28.422528 0.218274
2011-01-27 16:15:38 51°14.727 2°54.763 4.8843 0.079941 0.647356 0.078977
2011-01-27 16:16:37 51°14.589 2°54.934 5.0468 0.061108 0.487735 0.148626
2011-01-27 16:17:37 51°14.445 2°55.098 5.2049 0.054033 0.427456 0.148626
2011-01-27 16:18:39 51°14.297 2°55.257 5.32 0.049144 0.386075 0.078977
2011-01-27 16:19:39 51°14.166 2°55.377 5.4158 0.046127 0.360276 0.044153
2011-01-27 16:20:39 51°14.047 2°55.466 5.5033 0.043943 0.341218 0.044153
2011-01-27 16:21:39 51°13.942 2°55.539 5.6409 0.57257 3.914959 -0.478207
2011-01-27 16:22:38 51°13.842 2°55.615 5.8803 0.096693 0.614542 -0.478207
2011-01-27 16:23:38 51°13.764 2°55.701 5.9592 0.061106 0.386558 -0.513031
2011-01-27 16:24:37 51°13.712 2°55.797 6.0588 0.055384 0.353504 -0.478207
2011-01-27 16:25:36 51°13.679 2°55.887 6.0906 0.054448 0.348421 -0.478207
2011-01-27 16:26:35 51°13.665 2°55.953 6.3002 0.057777 0.370664 -0.478207